This is the latest recevied weather packets stored in our database for station/object KC4JIR. If no packets are shown the sender has not sent any weather packets the latest 10 day(s).
| Time | Temp. | Humidity | Pressure | Rain* | Wind** | Luminosity | Snow |
|---|---|---|---|---|---|---|---|
| 1777455842 | 16.67° C | 99% | 1016.3 hPa | 14.99 mm | - | 0 W/m² | - |
| 1777455539 | 16.67° C | 99% | 1016.2 hPa | 13.72 mm | - | 0 W/m² | - |
| 1777455236 | 16.67° C | 99% | 1016.3 hPa | 14.99 mm | - | 0 W/m² | - |
| 1777454933 | 16.67° C | 99% | 1016.4 hPa | 22.86 mm | - | 0 W/m² | - |
| 1777454630 | 16.67° C | 99% | 1016.2 hPa | 36.58 mm | - | 0 W/m² | - |
| 1777454326 | 16.67° C | 99% | 1016.2 hPa | 22.86 mm | - | 0 W/m² | - |
| 1777454022 | 16.67° C | 99% | 1016.4 hPa | 39.62 mm | - | 0 W/m² | - |
| 1777453720 | 16.67° C | 99% | 1016.2 hPa | 39.62 mm | - | 0 W/m² | - |
| 1777437018 | 16.11° C | 99% | 1014.3 hPa | 0 mm | - | 0 W/m² | - |
| 1777436715 | 16.11° C | 99% | 1014.3 hPa | 0 mm | - | 0 W/m² | - |
| 1777436411 | 16.11° C | 99% | 1014.5 hPa | 0 mm | - | 0 W/m² | - |
| 1777428511 | 16.67° C | 99% | 1016.9 hPa | 3.05 mm | - | 0 W/m² | - |
| 1777428207 | 16.67° C | 99% | 1016.9 hPa | 3.05 mm | - | 0 W/m² | - |
| 1777427902 | 16.67° C | 99% | 1017 hPa | 3.05 mm | - | 0 W/m² | - |
| 1777426386 | 16.67° C | 99% | 1016.2 hPa | 0 mm | - | 0 W/m² | - |
| 1777426082 | 16.67° C | 99% | 1016.3 hPa | 1.78 mm | - | 0 W/m² | - |
| 1777425777 | 16.67° C | 99% | 1016 hPa | 1.78 mm | - | 0 W/m² | - |
| 1777425471 | 16.67° C | 99% | 1015.9 hPa | 0 mm | - | 0 W/m² | - |
| 1777425168 | 16.67° C | 99% | 1015.9 hPa | 0 mm | - | 0 W/m² | - |
| 1777424561 | 16.67° C | 99% | 1015.5 hPa | 0 mm | - | 0 W/m² | - |
| 1777424256 | 16.67° C | 99% | 1015.5 hPa | 0 mm | - | 0 W/m² | - |
| 1777423953 | 16.67° C | 99% | 1015.4 hPa | 0 mm | - | 0 W/m² | - |
| 1777423649 | 16.67° C | 99% | 1015.3 hPa | 0 mm | - | 0 W/m² | - |
| 1777423345 | 16.67° C | 99% | 1014.9 hPa | 0 mm | - | 0 W/m² | - |
| 1777423040 | 16.67° C | 99% | 1014.9 hPa | 0 mm | - | 0 W/m² | - |
* Rain latest hour (hover to see other rain measurements)
** Current wind speed in m/s (hover to see current wind gust speed)